createdAt,value
2017-11-19T00:00:00.550Z,74.56
2017-11-19T00:01:09.393Z,75.79
2017-11-19T00:02:18.235Z,79.02
2017-11-19T00:03:27.077Z,79.58
2017-11-19T00:04:35.906Z,80.53
2017-11-19T00:05:44.735Z,78.35
2017-11-19T00:06:53.566Z,76.36
2017-11-19T00:08:02.601Z,71.81
2017-11-19T00:09:11.717Z,73.61
2017-11-19T00:10:20.831Z,74.47
2017-11-19T00:11:29.661Z,79.58
2017-11-19T00:12:38.497Z,75.6
2017-11-19T00:13:47.331Z,74.37
2017-11-19T00:14:56.165Z,81.01
2017-11-19T00:16:04.996Z,80.34
2017-11-19T00:17:13.821Z,80.25
2017-11-19T00:18:22.645Z,73.8
2017-11-19T00:19:31.952Z,78.26
2017-11-19T00:20:40.776Z,79.02
2017-11-19T00:21:49.644Z,71.15
2017-11-19T00:22:58.426Z,78.07
2017-11-19T00:24:07.249Z,76.93
2017-11-19T00:25:16.402Z,77.22
2017-11-19T00:26:25.229Z,78.83
2017-11-19T00:27:34.052Z,72.38
2017-11-19T00:28:42.876Z,73.8
2017-11-19T00:29:51.709Z,77.03
2017-11-19T00:31:00.577Z,78.73
2017-11-19T00:32:09.407Z,75.04
2017-11-19T00:33:18.226Z,75.98
2017-11-19T00:34:27.048Z,73.05
2017-11-19T00:35:35.974Z,75.51
2017-11-19T00:36:44.797Z,77.12
2017-11-19T00:37:53.624Z,76.08
2017-11-19T00:39:02.728Z,73.99
2017-11-19T00:40:11.553Z,76.46
2017-11-19T00:41:20.395Z,77.22
2017-11-19T00:42:29.498Z,73.52
2017-11-19T00:43:38.327Z,71.53
2017-11-19T00:44:47.146Z,71.81
2017-11-19T00:45:55.975Z,77.16
2017-11-19T00:47:04.796Z,78.54
2017-11-19T00:48:14.160Z,78.16
2017-11-19T00:49:23.264Z,77.5
2017-11-19T00:50:32.089Z,79.49
2017-11-19T00:51:40.916Z,79.3
2017-11-19T00:52:49.750Z,80.15
2017-11-19T00:53:58.727Z,73.71
2017-11-19T00:55:07.556Z,79.39
2017-11-19T00:56:16.666Z,80.72
2017-11-19T00:57:25.493Z,75.04
2017-11-19T00:58:34.318Z,77.03
2017-11-19T00:59:43.201Z,72.38
2017-11-19T01:00:52.018Z,78.16
2017-11-19T01:02:00.841Z,79.49
2017-11-19T01:03:09.666Z,76.36
2017-11-19T01:04:18.494Z,80.06
2017-11-19T01:05:27.604Z,73.9
2017-11-19T01:06:36.713Z,80.25
2017-11-19T01:07:45.822Z,78.26
2017-11-19T01:08:54.922Z,77.69
2017-11-19T01:10:04.031Z,77.22
2017-11-19T01:11:12.954Z,77.5
2017-11-19T01:12:21.776Z,74.85
2017-11-19T01:13:30.598Z,76.84
2017-11-19T01:14:39.424Z,75.04
2017-11-19T01:15:48.247Z,79.3
2017-11-19T01:16:57.121Z,79.39
2017-11-19T01:18:05.947Z,78.16
2017-11-19T01:19:15.049Z,80.15
2017-11-19T01:20:23.874Z,80.15
2017-11-19T01:21:32.977Z,78.16
2017-11-19T01:22:41.802Z,79.87
2017-11-19T01:23:50.627Z,80.44
2017-11-19T01:24:59.452Z,80.72
2017-11-19T01:26:08.276Z,80.25
2017-11-19T01:27:17.101Z,79.91
2017-11-19T01:28:26.027Z,82.66
2017-11-19T01:29:34.853Z,79.53
2017-11-19T01:30:43.679Z,82.81
2017-11-19T01:31:52.503Z,82.81
2017-11-19T01:33:01.329Z,81.01
2017-11-19T01:34:10.154Z,83.09
2017-11-19T01:35:18.979Z,82.71
2017-11-19T01:36:27.807Z,82.9
2017-11-19T01:37:36.634Z,83.89
2017-11-19T01:38:45.459Z,79.72
2017-11-19T01:39:54.387Z,81.9
2017-11-19T01:41:03.504Z,82.18
2017-11-19T01:42:12.328Z,78.49
2017-11-19T01:43:21.447Z,82.28
2017-11-19T01:44:30.553Z,82.85
2017-11-19T01:45:39.674Z,80.95
2017-11-19T01:46:48.498Z,80.38
2017-11-19T01:47:57.325Z,83.89
2017-11-19T01:49:06.149Z,82.09
2017-11-19T01:50:14.977Z,76.59
2017-11-19T01:51:24.081Z,79.82
2017-11-19T01:52:33.188Z,82.28
2017-11-19T01:53:42.014Z,82.47
2017-11-19T01:54:50.837Z,83.32
2017-11-19T01:55:59.661Z,83.51
2017-11-19T01:57:08.786Z,83.13
2017-11-19T01:58:17.611Z,83.32
2017-11-19T01:59:26.717Z,82.14
2017-11-19T02:00:35.544Z,83.04
2017-11-19T02:01:44.365Z,83.85
2017-11-19T02:02:53.479Z,84.17
2017-11-19T02:04:02.302Z,84.23
2017-11-19T02:05:11.416Z,80.34
2017-11-19T02:06:20.243Z,85.31
2017-11-19T02:07:29.070Z,82.94
2017-11-19T02:08:38.044Z,83.13
2017-11-19T02:09:47.153Z,82.62
2017-11-19T02:10:55.977Z,83.94
2017-11-19T02:12:04.805Z,84.42
2017-11-19T02:13:13.630Z,83.18
2017-11-19T02:14:22.882Z,81.57
2017-11-19T02:15:31.708Z,85.88
2017-11-19T02:16:40.535Z,83.56
2017-11-19T02:17:49.368Z,82.81
2017-11-19T02:18:58.186Z,81.76
2017-11-19T02:20:07.019Z,83
2017-11-19T02:21:15.840Z,82.24
2017-11-19T02:22:24.666Z,83.18
2017-11-19T02:23:33.770Z,85.31
2017-11-19T02:24:42.597Z,82.81
2017-11-19T02:25:51.470Z,82.9
2017-11-19T02:27:00.294Z,84.04
2017-11-19T02:28:09.120Z,80.91
2017-11-19T02:29:17.944Z,84.94
2017-11-19T02:30:26.772Z,84.46
2017-11-19T02:31:36.031Z,80.53
2017-11-19T02:32:44.854Z,80.25
2017-11-19T02:33:53.680Z,82.09
2017-11-19T02:35:02.507Z,83.75
2017-11-19T02:36:11.333Z,74.37
2017-11-19T02:37:20.461Z,81.14
2017-11-19T02:38:29.854Z,76.5
2017-11-19T02:39:38.683Z,83.61
2017-11-19T02:40:47.501Z,83.13
2017-11-19T02:41:56.330Z,83.51
2017-11-19T02:43:05.153Z,82.14
2017-11-19T02:44:13.990Z,81.38
2017-11-19T02:45:23.091Z,79.77
2017-11-19T02:46:31.916Z,85.31
2017-11-19T02:47:40.742Z,83.42
2017-11-19T02:48:49.873Z,77.06
2017-11-19T02:49:58.700Z,78.02
2017-11-19T02:51:07.522Z,80.29
2017-11-19T02:52:16.631Z,76.97
2017-11-19T02:53:25.457Z,76.03
2017-11-19T02:54:34.386Z,72.52
2017-11-19T02:55:43.208Z,73.84
2017-11-19T02:56:52.033Z,75.84
2017-11-19T02:58:00.859Z,69.86
2017-11-19T02:59:09.688Z,76.4
2017-11-19T03:00:18.811Z,72.33
2017-11-19T03:01:27.645Z,73.27
2017-11-19T03:02:36.753Z,73.08
2017-11-19T03:03:45.579Z,73.46
2017-11-19T03:04:54.405Z,71.19
2017-11-19T03:06:03.381Z,72.89
2017-11-19T03:07:12.206Z,72.52
2017-11-19T03:08:21.029Z,71.57
2017-11-19T03:09:29.853Z,71.57
2017-11-19T03:10:38.678Z,71.95
2017-11-19T03:11:47.902Z,72.14
2017-11-19T03:12:56.728Z,71.85
2017-11-19T03:14:05.554Z,72.33
2017-11-19T03:15:14.381Z,72.61
2017-11-19T03:16:23.212Z,72.99
2017-11-19T03:17:32.035Z,72.89
2017-11-19T03:18:40.860Z,72.8
2017-11-19T03:19:49.732Z,70.49
2017-11-19T03:20:58.566Z,71.38
2017-11-19T03:22:07.382Z,70.34
2017-11-19T03:23:16.257Z,70.72
2017-11-19T03:24:25.362Z,71.09
2017-11-19T03:25:34.188Z,71.47
2017-11-19T03:26:43.011Z,70.43
2017-11-19T03:27:51.834Z,68.73
2017-11-19T03:29:00.967Z,66.07
2017-11-19T03:30:09.793Z,66.35
2017-11-19T03:31:18.625Z,67.43
2017-11-19T03:32:27.448Z,65.97
2017-11-19T03:33:36.274Z,64.46
2017-11-19T03:34:45.099Z,63.98
2017-11-19T03:35:53.925Z,63.98
2017-11-19T03:37:03.028Z,63.13
2017-11-19T03:38:11.863Z,63.04
2017-11-19T03:39:20.678Z,64.08
2017-11-19T03:40:29.554Z,62.94
2017-11-19T03:41:38.377Z,61.99
2017-11-19T03:42:47.201Z,60.95
2017-11-19T03:43:56.028Z,60.95
2017-11-19T03:45:04.853Z,59.05
2017-11-19T03:46:14.356Z,60.38
2017-11-19T03:47:23.461Z,59.91
2017-11-19T03:48:32.285Z,61.14
2017-11-19T03:49:41.113Z,59.81
2017-11-19T03:50:49.936Z,60.28
2017-11-19T03:51:58.764Z,58.39
2017-11-19T03:53:07.591Z,58.86
2017-11-19T03:54:16.415Z,60.76
2017-11-19T03:55:25.241Z,60.47
2017-11-19T03:56:34.066Z,60.19
2017-11-19T03:57:42.890Z,59.63
2017-11-19T03:58:51.713Z,58.36
2017-11-19T04:00:00.538Z,58.77
2017-11-19T04:01:09.370Z,59.31
2017-11-19T04:02:18.193Z,56.94
2017-11-19T04:03:27.320Z,57.64
2017-11-19T04:04:36.142Z,57.25
2017-11-19T04:05:44.984Z,58.2
2017-11-19T04:06:53.791Z,58.67
2017-11-19T04:08:02.616Z,57.23
2017-11-19T04:09:11.800Z,55.71
2017-11-19T04:10:20.900Z,56.78
2017-11-19T04:11:30.009Z,56.68
2017-11-19T04:12:39.123Z,54.86
2017-11-19T04:13:48.229Z,54.22
2017-11-19T04:14:57.132Z,53.84
2017-11-19T04:16:05.930Z,55.71
2017-11-19T04:17:15.031Z,55.74
2017-11-19T04:18:23.857Z,54.76
2017-11-19T04:19:32.684Z,54
2017-11-19T04:20:41.850Z,55.45
2017-11-19T04:21:50.673Z,53.18
2017-11-19T04:22:59.498Z,54.32
2017-11-19T04:24:08.326Z,54.13
2017-11-19T04:25:17.152Z,54.03
2017-11-19T04:26:26.077Z,54.22
2017-11-19T04:27:34.900Z,54.98
2017-11-19T04:28:43.734Z,54.13
2017-11-19T04:29:52.551Z,53.75
2017-11-19T04:31:01.375Z,53.94
2017-11-19T04:32:10.759Z,54.03
2017-11-19T04:33:19.582Z,55.64
2017-11-19T04:34:28.407Z,55.74
2017-11-19T04:35:37.232Z,54.22
2017-11-19T04:36:46.057Z,55.36
2017-11-19T04:37:55.181Z,53.18
2017-11-19T04:39:04.007Z,53.75
2017-11-19T04:40:12.831Z,54.69
2017-11-19T04:41:21.656Z,53.46
2017-11-19T04:42:30.480Z,54.98
2017-11-19T04:43:39.455Z,55.55
2017-11-19T04:44:48.281Z,54.41
2017-11-19T04:45:57.106Z,54.88
2017-11-19T04:47:05.929Z,55.14
2017-11-19T04:48:14.756Z,55.14
2017-11-19T04:49:23.878Z,53.63
2017-11-19T04:50:32.997Z,54.69
2017-11-19T04:51:41.820Z,54.13
2017-11-19T04:52:50.645Z,56.68
2017-11-19T04:53:59.473Z,56.59
2017-11-19T04:55:08.298Z,55.74
2017-11-19T04:56:17.122Z,54.03
2017-11-19T04:57:25.946Z,54.79
2017-11-19T04:58:34.772Z,54.98
2017-11-19T04:59:43.598Z,53.65
2017-11-19T05:00:52.623Z,54.79
2017-11-19T05:02:01.447Z,55.74
2017-11-19T05:03:10.271Z,55.64
2017-11-19T05:04:19.097Z,58.77
2017-11-19T05:05:27.922Z,59.44
2017-11-19T05:06:37.024Z,58.96
2017-11-19T05:07:45.850Z,62.75
2017-11-19T05:08:54.675Z,63.7
2017-11-19T05:10:03.501Z,64.74
2017-11-19T05:11:12.327Z,62.66
2017-11-19T05:12:21.152Z,63.7
2017-11-19T05:13:29.983Z,60.76
2017-11-19T05:14:38.802Z,63.32
2017-11-19T05:15:47.625Z,62.18
2017-11-19T05:16:56.451Z,64.4
2017-11-19T05:18:05.803Z,63.13
2017-11-19T05:19:14.626Z,61.05
2017-11-19T05:20:23.454Z,62.47
2017-11-19T05:21:32.277Z,59.53
2017-11-19T05:22:41.102Z,60.38
2017-11-19T05:23:50.207Z,60.67
2017-11-19T05:24:59.031Z,59.34
2017-11-19T05:26:07.857Z,61.24
2017-11-19T05:27:16.682Z,60.95
2017-11-19T05:28:25.506Z,60.19
2017-11-19T05:29:34.380Z,57.47
2017-11-19T05:30:43.203Z,60.13
2017-11-19T05:31:52.029Z,55.83
2017-11-19T05:33:01.133Z,58.96
2017-11-19T05:34:10.245Z,60.1
2017-11-19T05:35:19.370Z,58.96
2017-11-19T05:36:28.198Z,59.91
2017-11-19T05:37:37.021Z,60.47
2017-11-19T05:38:45.845Z,58.86
2017-11-19T05:39:54.669Z,60.13
2017-11-19T05:41:03.646Z,59.72
2017-11-19T05:42:12.470Z,60.38
2017-11-19T05:43:21.293Z,57.73
2017-11-19T05:44:30.119Z,59.44
2017-11-19T05:45:38.944Z,59.44
2017-11-19T05:46:47.768Z,59.81
2017-11-19T05:47:56.593Z,59.53
2017-11-19T05:49:05.425Z,58.29
2017-11-19T05:50:14.244Z,59.81
2017-11-19T05:51:23.076Z,59.91
2017-11-19T05:52:31.944Z,59.91
2017-11-19T05:53:40.769Z,59.81
2017-11-19T05:54:49.591Z,59.63
2017-11-19T05:55:58.418Z,57.54
2017-11-19T05:57:07.244Z,60.86
2017-11-19T05:58:16.220Z,60.1
2017-11-19T05:59:25.041Z,60.38
2017-11-19T06:00:33.868Z,58.96
2017-11-19T06:01:42.694Z,57.44
2017-11-19T06:02:51.516Z,58.96
2017-11-19T06:04:00.543Z,60.1
2017-11-19T06:05:09.368Z,59.72
2017-11-19T06:06:18.193Z,59.72
2017-11-19T06:07:27.300Z,58.39
2017-11-19T06:08:36.126Z,58.86
2017-11-19T06:09:45.053Z,58.86
2017-11-19T06:10:53.880Z,59.05
2017-11-19T06:12:02.707Z,59.91
2017-11-19T06:13:11.533Z,59.91
2017-11-19T06:14:20.359Z,59.44
2017-11-19T06:15:29.185Z,59.53
2017-11-19T06:16:38.010Z,58.58
2017-11-19T06:17:46.836Z,55.07
2017-11-19T06:18:55.662Z,58.29
2017-11-19T06:20:04.489Z,58.86
2017-11-19T06:21:13.313Z,59.25
2017-11-19T06:22:22.451Z,59.63
2017-11-19T06:23:31.276Z,56.02
2017-11-19T06:24:40.388Z,59.34
2017-11-19T06:25:49.213Z,57.06
2017-11-19T06:26:58.040Z,55.55
2017-11-19T06:28:06.864Z,56.49
2017-11-19T06:29:15.974Z,57.35
2017-11-19T06:30:24.804Z,59.94
2017-11-19T06:31:33.629Z,56.81
2017-11-19T06:32:42.655Z,56.02
2017-11-19T06:33:51.483Z,58.89
2017-11-19T06:35:00.308Z,60.03
2017-11-19T06:36:09.438Z,58.2
2017-11-19T06:37:18.236Z,58.2
2017-11-19T06:38:27.459Z,56.59
2017-11-19T06:39:36.283Z,55.07
2017-11-19T06:40:45.107Z,54.34
2017-11-19T06:41:53.931Z,55.07
2017-11-19T06:43:02.757Z,53.56
2017-11-19T06:44:11.734Z,55.26
2017-11-19T06:45:20.558Z,54.98
2017-11-19T06:46:29.384Z,55.74
2017-11-19T06:47:38.213Z,54.69
2017-11-19T06:48:47.037Z,54.69
2017-11-19T06:49:56.013Z,54.6
2017-11-19T06:51:04.850Z,54.03
2017-11-19T06:52:13.673Z,54.22
2017-11-19T06:53:22.496Z,53.46
2017-11-19T06:54:31.321Z,53.56
2017-11-19T06:55:40.147Z,55.38
2017-11-19T06:56:48.974Z,53.56
2017-11-19T06:57:57.808Z,54.53
2017-11-19T06:59:06.637Z,54.06
2017-11-19T07:00:15.743Z,54.44
2017-11-19T07:01:24.674Z,55.57
2017-11-19T07:02:33.494Z,54.63
2017-11-19T07:03:42.322Z,54.44
2017-11-19T07:04:51.152Z,52.73
2017-11-19T07:05:59.976Z,50.83
2017-11-19T07:07:08.800Z,51.68
2017-11-19T07:08:17.932Z,51.03
2017-11-19T07:09:26.757Z,51.68
2017-11-19T07:10:35.591Z,51.12
2017-11-19T07:11:44.424Z,50.34
2017-11-19T07:12:53.296Z,50.36
2017-11-19T07:14:02.118Z,51.12
2017-11-19T07:15:10.943Z,50.36
2017-11-19T07:16:19.767Z,50.07
2017-11-19T07:17:28.592Z,51.12
2017-11-19T07:18:37.569Z,47.87
2017-11-19T07:19:46.395Z,46.37
2017-11-19T07:20:55.219Z,47.13
2017-11-19T07:22:04.043Z,47.32
2017-11-19T07:23:12.868Z,47.52
2017-11-19T07:24:21.694Z,47.23
2017-11-19T07:25:30.519Z,47.8
2017-11-19T07:26:39.627Z,46.94
2017-11-19T07:27:48.461Z,47.52
2017-11-19T07:28:57.288Z,47.04
2017-11-19T07:30:06.263Z,46.28
2017-11-19T07:31:15.091Z,45.43
2017-11-19T07:32:24.198Z,46.37
2017-11-19T07:33:33.030Z,43.04
2017-11-19T07:34:41.852Z,43.53
2017-11-19T07:35:51.029Z,43.43
2017-11-19T07:36:59.854Z,44.67
2017-11-19T07:38:08.681Z,44.67
2017-11-19T07:39:17.506Z,46.28
2017-11-19T07:40:26.621Z,43.6
2017-11-19T07:41:35.596Z,44.57
2017-11-19T07:42:44.703Z,44.29
2017-11-19T07:43:54.113Z,44.84
2017-11-19T07:45:03.230Z,44.27
2017-11-19T07:46:12.053Z,43.82
2017-11-19T07:47:21.037Z,44.46
2017-11-19T07:48:29.861Z,44.74
2017-11-19T07:49:38.685Z,45.31
2017-11-19T07:50:47.511Z,45.12
2017-11-19T07:51:56.337Z,44.76
2017-11-19T07:53:05.312Z,41.92
2017-11-19T07:54:14.138Z,41.92
2017-11-19T07:55:23.248Z,41.54
2017-11-19T07:56:32.071Z,41.35
2017-11-19T07:57:41.180Z,41.14
2017-11-19T07:58:50.159Z,40.28
2017-11-19T07:59:58.978Z,39.81
2017-11-19T08:01:07.803Z,39.53
2017-11-19T08:02:16.631Z,39.72
2017-11-19T08:03:25.742Z,38.77
2017-11-19T08:04:34.568Z,37.08
2017-11-19T08:05:43.392Z,36.89
2017-11-19T08:06:52.218Z,36.8
2017-11-19T08:08:01.044Z,36.21
2017-11-19T08:09:09.870Z,36.42
2017-11-19T08:10:18.849Z,36.22
2017-11-19T08:11:27.677Z,35.83
2017-11-19T08:12:36.500Z,35.07
2017-11-19T08:13:45.631Z,34.52
2017-11-19T08:14:54.458Z,34.03
2017-11-19T08:16:03.435Z,32.98
2017-11-19T08:17:12.547Z,33.1
2017-11-19T08:18:21.396Z,33
2017-11-19T08:19:30.244Z,33.19
2017-11-19T08:20:39.068Z,32.23
2017-11-19T08:21:47.996Z,32.14
2017-11-19T08:22:56.825Z,31.39
2017-11-19T08:24:05.651Z,30.73
2017-11-19T08:25:14.767Z,29.02
2017-11-19T08:26:23.585Z,29.4
2017-11-19T08:27:32.417Z,29.3
2017-11-19T08:28:41.244Z,28.92
2017-11-19T08:29:50.070Z,29.3
2017-11-19T08:30:58.895Z,29.4
2017-11-19T08:32:07.721Z,27.98
2017-11-19T08:33:16.830Z,27.59
2017-11-19T08:34:25.652Z,27.88
2017-11-19T08:35:34.529Z,27.98
2017-11-19T08:36:43.359Z,27.03
2017-11-19T08:37:52.182Z,27.03
2017-11-19T08:39:01.061Z,26.17
2017-11-19T08:40:09.892Z,26.55
2017-11-19T08:41:18.712Z,25.51
2017-11-19T08:42:27.541Z,25.32
2017-11-19T08:43:36.368Z,25.51
2017-11-19T08:44:45.196Z,25.6
2017-11-19T08:45:54.125Z,26.08
2017-11-19T08:47:03.250Z,25.32
2017-11-19T08:48:12.081Z,26.85
2017-11-19T08:49:20.907Z,26.76
2017-11-19T08:50:29.835Z,27.33
2017-11-19T08:51:38.666Z,29.02
2017-11-19T08:52:47.773Z,28.45
2017-11-19T08:53:56.600Z,29.21
2017-11-19T08:55:05.425Z,29.78
2017-11-19T08:56:14.404Z,29.59
2017-11-19T08:57:23.229Z,28.74
2017-11-19T08:58:32.058Z,29.79
2017-11-19T08:59:40.884Z,31.21
2017-11-19T09:00:49.710Z,30.82
2017-11-19T09:01:58.790Z,29.41
2017-11-19T09:03:07.616Z,30.17
2017-11-19T09:04:16.443Z,29.97
2017-11-19T09:05:25.271Z,31.1
2017-11-19T09:06:34.100Z,28.36
2017-11-19T09:07:42.929Z,29.32
2017-11-19T09:08:51.754Z,30.17
2017-11-19T09:10:00.582Z,29.03
2017-11-19T09:11:09.413Z,29.32
2017-11-19T09:12:18.237Z,29.03
2017-11-19T09:13:27.216Z,28.94
2017-11-19T09:14:36.044Z,30.36
2017-11-19T09:15:44.868Z,29.89
2017-11-19T09:16:53.696Z,27.04
2017-11-19T09:18:02.521Z,28.18
2017-11-19T09:19:11.497Z,27.99
2017-11-19T09:20:20.330Z,27.33
2017-11-19T09:21:29.150Z,27.33
2017-11-19T09:22:37.977Z,27.7
2017-11-19T09:23:46.804Z,27.33
2017-11-19T09:24:55.960Z,28.18
2017-11-19T09:26:04.789Z,28.18
2017-11-19T09:27:13.617Z,27.89
2017-11-19T09:28:22.734Z,28.56
2017-11-19T09:29:31.551Z,27.99
2017-11-19T09:30:40.760Z,28.85
2017-11-19T09:31:49.588Z,27.99
2017-11-19T09:32:58.417Z,28.27
2017-11-19T09:34:07.251Z,28.56
2017-11-19T09:35:16.085Z,28.27
2017-11-19T09:36:25.021Z,27.33
2017-11-19T09:37:33.842Z,27.7
2017-11-19T09:38:42.671Z,27.51
2017-11-19T09:39:51.500Z,28.27
2017-11-19T09:41:00.325Z,25.81
2017-11-19T09:42:09.306Z,29.14
2017-11-19T09:43:18.134Z,29.43
2017-11-19T09:44:26.962Z,30.08
2017-11-19T09:45:35.791Z,32.64
2017-11-19T09:46:44.620Z,33.21
2017-11-19T09:47:53.497Z,33.59
2017-11-19T09:49:02.331Z,33.21
2017-11-19T09:50:11.441Z,33.59
2017-11-19T09:51:20.276Z,33.5
2017-11-19T09:52:29.105Z,33.78
2017-11-19T09:53:37.975Z,33.69
2017-11-19T09:54:46.804Z,34.92
2017-11-19T09:55:55.632Z,33.59
2017-11-19T09:57:04.463Z,34.82
2017-11-19T09:58:13.292Z,33.69
2017-11-19T09:59:22.270Z,34.34
2017-11-19T10:00:31.098Z,35.22
2017-11-19T10:01:40.214Z,41.11
2017-11-19T10:02:49.032Z,41.86
2017-11-19T10:03:57.860Z,41.96
2017-11-19T10:05:07.091Z,42.63
2017-11-19T10:06:16.196Z,43.67
2017-11-19T10:07:25.034Z,45.09
2017-11-19T10:08:33.854Z,44.71
2017-11-19T10:09:42.972Z,39.78
2017-11-19T10:10:52.424Z,38.92
2017-11-19T10:12:01.253Z,42.72
2017-11-19T10:13:10.081Z,41.77
2017-11-19T10:14:18.908Z,41.67
2017-11-19T10:15:28.019Z,41.67
2017-11-19T10:16:37.049Z,41.3
2017-11-19T10:17:45.879Z,39.87
2017-11-19T10:18:54.709Z,41.69
2017-11-19T10:20:03.815Z,41.79
2017-11-19T10:21:12.643Z,41.03
2017-11-19T10:22:21.480Z,41.6
2017-11-19T10:23:30.321Z,44.73
2017-11-19T10:24:39.163Z,42.27
2017-11-19T10:25:47.995Z,42.27
2017-11-19T10:26:56.830Z,39.13
2017-11-19T10:28:05.803Z,41.01
2017-11-19T10:29:14.633Z,40.34
2017-11-19T10:30:23.748Z,41.96
2017-11-19T10:31:32.654Z,41.01
2017-11-19T10:32:41.483Z,41.86
2017-11-19T10:33:50.561Z,39.01
2017-11-19T10:34:59.389Z,39.01
2017-11-19T10:36:08.219Z,38.82
2017-11-19T10:37:17.048Z,39.68
2017-11-19T10:38:25.885Z,39.11
2017-11-19T10:39:34.712Z,42.34
2017-11-19T10:40:43.539Z,43.88
2017-11-19T10:41:52.369Z,42.46
2017-11-19T10:43:01.209Z,43.79
2017-11-19T10:44:10.043Z,48.44
2017-11-19T10:45:18.873Z,51.2
2017-11-19T10:46:27.703Z,52.14
2017-11-19T10:47:36.541Z,50.05
2017-11-19T10:48:45.654Z,51.01
2017-11-19T10:49:54.763Z,50.53
2017-11-19T10:51:03.592Z,49.2
2017-11-19T10:52:12.421Z,50.46
2017-11-19T10:53:21.250Z,53.97
2017-11-19T10:54:30.082Z,57.78
2017-11-19T10:55:38.912Z,52.55
2017-11-19T10:56:48.024Z,58.35
2017-11-19T10:57:56.855Z,58.73
2017-11-19T10:59:05.979Z,62.62
2017-11-19T11:00:14.810Z,59.68
2017-11-19T11:01:23.640Z,66.33
2017-11-19T11:02:32.514Z,53.97
2017-11-19T11:03:41.367Z,45.33
2017-11-19T11:04:50.505Z,49.98
2017-11-19T11:05:59.335Z,57.5
2017-11-19T11:07:08.165Z,59.68
2017-11-19T11:08:16.993Z,57.94
2017-11-19T11:09:26.206Z,57.06
2017-11-19T11:10:35.093Z,50.6
2017-11-19T11:11:43.911Z,47.92
2017-11-19T11:12:52.739Z,43.36
2017-11-19T11:14:01.568Z,42.15
2017-11-19T11:15:10.678Z,40.04
2017-11-19T11:16:19.838Z,39.37
2017-11-19T11:17:28.964Z,38.14
2017-11-19T11:18:37.791Z,39.18
2017-11-19T11:19:46.618Z,38.73
2017-11-19T11:20:55.445Z,37.3
2017-11-19T11:22:04.621Z,39.59
2017-11-19T11:23:13.448Z,35.31
2017-11-19T11:24:22.283Z,37.88
2017-11-19T11:25:31.390Z,35.11
2017-11-19T11:26:40.220Z,31.21
2017-11-19T11:27:49.636Z,30.66
2017-11-19T11:28:58.465Z,26.39
2017-11-19T11:30:07.292Z,25.25
2017-11-19T11:31:16.118Z,26.96
2017-11-19T11:32:24.952Z,25.92
2017-11-19T11:33:33.772Z,25.82
2017-11-19T11:34:42.597Z,22.97
2017-11-19T11:35:51.428Z,24.11
2017-11-19T11:37:00.537Z,22.5
2017-11-19T11:38:09.363Z,24.68
2017-11-19T11:39:18.191Z,22.67
2017-11-19T11:40:27.061Z,23.45
2017-11-19T11:41:35.952Z,24.3
2017-11-19T11:42:44.782Z,25.82
2017-11-19T11:43:53.613Z,26.38
2017-11-19T11:45:02.437Z,28.1
2017-11-19T11:46:11.264Z,24.95
2017-11-19T11:47:20.284Z,25.9
2017-11-19T11:48:29.233Z,25.34
2017-11-19T11:49:38.345Z,26.09
2017-11-19T11:50:47.163Z,26.39
2017-11-19T11:51:55.989Z,25.82
2017-11-19T11:53:04.822Z,25.71
2017-11-19T11:54:13.657Z,26.66
2017-11-19T11:55:22.488Z,26.09
2017-11-19T11:56:31.315Z,25.81
2017-11-19T11:57:40.144Z,26.09
2017-11-19T11:58:48.971Z,26.18
2017-11-19T11:59:58.102Z,23.34
2017-11-19T12:01:06.928Z,23.24
2017-11-19T12:02:15.757Z,22.96
2017-11-19T12:03:24.585Z,23.15
2017-11-19T12:04:33.411Z,24.19
2017-11-19T12:05:42.239Z,23.91
2017-11-19T12:06:51.067Z,24.29
2017-11-19T12:07:59.893Z,24.57
2017-11-19T12:09:09.015Z,25.9
2017-11-19T12:10:17.848Z,26.18
2017-11-19T12:11:26.970Z,25.79
2017-11-19T12:12:36.082Z,25.81
2017-11-19T12:13:44.928Z,26.57
2017-11-19T12:14:54.034Z,25.42
2017-11-19T12:16:03.214Z,25.34
2017-11-19T12:17:12.040Z,27.23
2017-11-19T12:18:20.867Z,28.08
2017-11-19T12:19:29.697Z,26.28
2017-11-19T12:20:38.524Z,26.09
2017-11-19T12:21:47.404Z,26.18
2017-11-19T12:22:56.250Z,25.81
2017-11-19T12:24:05.077Z,24.86
2017-11-19T12:25:13.904Z,23.91
2017-11-19T12:26:22.736Z,22.69
2017-11-19T12:27:31.565Z,22.4
2017-11-19T12:28:40.395Z,22.69
2017-11-19T12:29:49.224Z,22.5
2017-11-19T12:30:58.053Z,22.02
2017-11-19T12:32:06.887Z,23.25
2017-11-19T12:33:16.019Z,23.16
2017-11-19T12:34:25.127Z,24.21
2017-11-19T12:35:33.963Z,24.87
2017-11-19T12:36:42.788Z,25.92
2017-11-19T12:37:51.616Z,26.12
2017-11-19T12:39:00.445Z,24.6
2017-11-19T12:40:09.276Z,24.03
2017-11-19T12:41:18.108Z,22.89
2017-11-19T12:42:27.216Z,23.46
2017-11-19T12:43:36.052Z,23.46
2017-11-19T12:44:45.317Z,23.55
2017-11-19T12:45:54.149Z,23.18
2017-11-19T12:47:02.976Z,23.18
2017-11-19T12:48:12.092Z,20.7
2017-11-19T12:49:21.199Z,30.6
2017-11-19T12:50:30.128Z,39.11
2017-11-19T12:51:38.961Z,37.74
2017-11-19T12:52:47.791Z,36.99
2017-11-19T12:53:56.619Z,32.23
2017-11-19T12:55:05.445Z,26.73
2017-11-19T12:56:14.379Z,25.6
2017-11-19T12:57:23.488Z,27.87
2017-11-19T12:58:32.314Z,23.98
2017-11-19T12:59:41.139Z,18.48
2017-11-19T13:00:49.966Z,17.73
2017-11-19T13:01:58.941Z,16.39
2017-11-19T13:03:07.769Z,11.47
2017-11-19T13:04:16.880Z,9.1
2017-11-19T13:05:25.706Z,9.39
2017-11-19T13:06:34.535Z,7.97
2017-11-19T13:07:43.461Z,6.82
2017-11-19T13:08:52.288Z,4.64
2017-11-19T13:10:01.114Z,3.22
2017-11-19T13:11:09.946Z,1.51
2017-11-19T13:12:18.773Z,0.47
2017-11-19T13:13:27.645Z,0.19
2017-11-19T13:14:36.483Z,0
2017-11-19T13:15:45.311Z,0
2017-11-19T13:16:54.137Z,0
2017-11-19T13:18:02.962Z,0
2017-11-19T13:19:11.938Z,0
2017-11-19T13:20:20.767Z,0
2017-11-19T13:21:29.607Z,0
2017-11-19T13:22:38.422Z,0
2017-11-19T13:23:47.249Z,0
2017-11-19T13:24:56.174Z,0
2017-11-19T13:26:05.009Z,0
2017-11-19T13:27:13.828Z,0
2017-11-19T13:28:22.657Z,0
2017-11-19T13:29:31.483Z,0
2017-11-19T13:30:40.412Z,0
2017-11-19T13:31:49.238Z,0
2017-11-19T13:32:58.067Z,0
2017-11-19T13:34:07.472Z,0
2017-11-19T13:35:16.310Z,0
2017-11-19T13:36:25.248Z,0
2017-11-19T13:37:34.358Z,0
2017-11-19T13:38:43.187Z,0
2017-11-19T13:39:52.292Z,0
2017-11-19T13:41:01.121Z,0
2017-11-19T13:42:10.248Z,0
2017-11-19T13:43:19.077Z,0
2017-11-19T13:44:28.205Z,0
2017-11-19T13:45:37.036Z,0
2017-11-19T13:46:45.863Z,0
2017-11-19T13:47:54.746Z,0
2017-11-19T13:49:03.853Z,0
2017-11-19T13:50:12.678Z,0
2017-11-19T13:51:21.507Z,0
2017-11-19T13:52:30.335Z,0
2017-11-19T13:53:39.168Z,0
2017-11-19T13:54:48.600Z,2.66
2017-11-19T13:55:57.428Z,3.23
2017-11-19T13:57:06.260Z,1.42
2017-11-19T13:58:15.087Z,1.9
2017-11-19T13:59:24.025Z,2.37
2017-11-19T14:00:33.128Z,6.65
2017-11-19T14:01:41.956Z,7.31
2017-11-19T14:02:50.789Z,6.74
2017-11-19T14:03:59.612Z,3.99
2017-11-19T14:05:08.869Z,4.36
2017-11-19T14:06:17.698Z,5.32
2017-11-19T14:07:26.523Z,4.74
2017-11-19T14:08:35.349Z,4.08
2017-11-19T14:09:44.177Z,5.69
2017-11-19T14:10:53.006Z,4.84
2017-11-19T14:12:01.834Z,5.03
2017-11-19T14:13:10.662Z,9.87
2017-11-19T14:14:19.488Z,8.54
2017-11-19T14:15:28.313Z,7.4
2017-11-19T14:16:37.443Z,8.83
2017-11-19T14:17:46.271Z,9.39
2017-11-19T14:18:55.096Z,12.81
2017-11-19T14:20:03.928Z,11.49
2017-11-19T14:21:12.753Z,15
2017-11-19T14:22:21.631Z,18.13
2017-11-19T14:23:30.457Z,17.08
2017-11-19T14:24:39.285Z,14.71
2017-11-19T14:25:48.114Z,15.95
2017-11-19T14:26:56.940Z,17.47
2017-11-19T14:28:06.101Z,15
2017-11-19T14:29:14.927Z,15
2017-11-19T14:30:23.753Z,14.43
2017-11-19T14:31:32.581Z,17.37
2017-11-19T14:32:41.407Z,13.95
2017-11-19T14:33:50.286Z,15.95
2017-11-19T14:34:59.112Z,14.71
2017-11-19T14:36:07.944Z,15
2017-11-19T14:37:16.767Z,18.13
2017-11-19T14:38:25.602Z,19.27
2017-11-19T14:39:34.476Z,18.32
2017-11-19T14:40:43.303Z,20.69
2017-11-19T14:41:52.136Z,19.27
2017-11-19T14:43:00.965Z,18.79
2017-11-19T14:44:09.803Z,21.26
2017-11-19T14:45:18.933Z,19.37
2017-11-19T14:46:27.761Z,18.04
2017-11-19T14:47:36.695Z,20.12
2017-11-19T14:48:45.514Z,21.08
2017-11-19T14:49:54.354Z,16.99
2017-11-19T14:51:03.181Z,20.6
2017-11-19T14:52:12.298Z,24.3
2017-11-19T14:53:21.127Z,29.14
2017-11-19T14:54:29.952Z,30.85
2017-11-19T14:55:38.780Z,27.34